Logo AVAMET
Benvolgut visitant, si us plau, ingressa Recuperar contrasenya

Quart de Poblet

Dades diàries. Acumulats / Últims 30 dies disponibles

Data Temperatura (°C) Humitat rel. (%) Pressió rel. (hPa) Vent (km/h) Precipitació
Mínima Mitjana Màxima Amplitud
tèrmica
Mínima Mitjana Màxima Mínima Mitjana Màxima Predom. Mitjana Ràfega
màxima
Total
(mm)
Índex-n
Mínima Mitjana Màxima Mínima Mitjana Màxima n
0 a 1
P0 max
mm 5'
Dades mensuals acumulades fins l'últim dia disponible
05/2019 9,2 14,3 20,7 18,6 18,9 23,3 32,7 23,5 27 65 92 1.001 1.014 1.025   6,0 49,9 24,2
Dades anuals acumulades fins l'últim dia disponible
2019 1,6 9,3 20,7 14,1 12,3 19,6 32,7 31,1 15 61 95 992 1.019 1.035   6,0 62,8 123,6
Últims 30 dies disponibles
22-05-2019 13,6     18,6     23,8 10,2 53 72 87 1.017 1.018 1.019 NE 5,0 20,9 0,0
21-05-2019 15,5     18,1     22,9 7,4 61 73 84 1.014 1.015 1.018 W 4,8 27,4 9,2
20-05-2019 13,2     18,3     22,2 9,0 42 58 78 1.011 1.012 1.014 W 7,4 29,0 0,0
19-05-2019 12,7     18,2     24,9 12,2 27 54 82 1.008 1.010 1.012 W 3,9 27,4 0,0
18-05-2019 13,8     16,7     19,8 6,0 43 59 77 1.008 1.009 1.011 E 3,7 22,5 5,0
17-05-2019 15,3     19,8     23,4 8,1 33 49 82 1.001 1.005 1.009 W 11,9 49,9 0,0
16-05-2019 16,3     18,8     23,1 6,8 48 69 82 1.005 1.011 1.016 NNE 5,6 33,8 0,0
15-05-2019 14,7     18,7     22,3 7,6 60 70 79 1.011 1.012 1.016 NE 6,1 37,0 0,0
14-05-2019 13,3     19,4     24,6 11,3 39 63 85 1.013 1.018 1.022 E 6,3 30,6 0,0
13-05-2019 15,2     19,2     24,0 8,8 29 66 89 1.019 1.020 1.022 NNE 6,0 22,5 0,0
12-05-2019 14,9     19,3     23,0 8,1 39 64 83 1.019 1.022 1.025 E 4,5 27,4 0,0
11-05-2019 17,6     21,1     24,2 6,6 51 69 83 1.014 1.018 1.024 NE 5,6 27,4 0,0
10-05-2019 20,7     26,1     32,7 12,0 28 50 68 1.010 1.012 1.014 SW 9,0 32,2 0,0
09-05-2019 19,3     23,6     29,9 10,6 27 48 62 1.010 1.012 1.013 SW 9,3 35,4 0,0
08-05-2019 15,2     22,1     28,2 13,0 38 61 92 1.009 1.011 1.015 SW 10,6 48,3 0,0
07-05-2019 12,3     17,2     21,7 9,4 64 79 89 1.014 1.017 1.019 NNE 4,3 20,9 0,0
06-05-2019 10,7     15,4     18,9 8,2 52 72 85 1.017 1.018 1.020 ENE 5,1 30,6 0,0
05-05-2019 12,5     16,2     20,0 7,5 31 58 81 1.012 1.015 1.017 E 5,8 30,6 0,0
04-05-2019 9,2     15,3     21,6 12,4 39 67 88 1.011 1.012 1.014 W 5,3 29,0 0,0
03-05-2019 11,8     14,6     19,2 7,4 59 80 88 1.011 1.013 1.015 W 4,2 30,6 3,6
02-05-2019 14,7     16,8     21,1 6,4 51 79 92 1.014 1.015 1.017 NNE 3,2 19,3 3,2
01-05-2019 12,8     16,3     20,8 8,0 57 80 90 1.013 1.015 1.017 ENE 3,9 25,7 3,2
30-04-2019 12,5     16,7     20,8 8,3 62 77 89 1.016 1.017 1.019 SSE 4,7 22,5 0,0
29-04-2019 11,8     15,8     19,3 7,5 66 78 89 1.017 1.019 1.021 ENE 4,2 22,5 0,0
28-04-2019 12,7     16,4     21,3 8,6 50 69 83 1.020 1.022 1.025 W 5,1 25,7 0,0
27-04-2019 12,7     17,1     21,7 9,0 35 57 80 1.023 1.025 1.027 W 6,4 25,7 0,0
26-04-2019 11,6     17,0     23,7 12,1 30 51 69 1.017 1.021 1.025 SW 6,9 29,0 0,0
25-04-2019 13,7     17,4     21,5 7,8 37 57 76 1.008 1.011 1.017 SW 9,3 49,9 0,0
24-04-2019 10,4     16,0     21,9 11,5 37 55 69 1.004 1.008 1.010 SW 8,9 38,6 0,0
23-04-2019 10,8     15,1     22,3 11,5 45 73 92 998 999 1.004 SW 4,8 48,3 0,8
Últims 13 mesos disponibles
04/2019 8,6 11,4 13,9 15,5 15,3 20,2 30,0 21,4 42 65 93 999 1.013 1.025 SW 7,3 61,2 77,2
03/2019 6,5 9,5 15,8 14,6 12,7 20,3 29,3 22,8 41 57 85 1.010 1.023 1.029 W 5,4 46,7 22,0
02/2019 3,4 6,8 10,8 12,1 12,3 18,3 26,4 23,0 35 62 76 994 1.025 1.033 W 5,2 62,8 0,0
01/2019 1,6 6,1 12,4 11,0 12,7 16,9 20,4 18,8 40 57 77 1.001 1.018 1.030 W 5,9 61,2 0,0
12/2018 4,8 8,4 12,0 12,8 14,6 18,7 24,0 19,2 51 68 82 1.008 1.025 1.030 W 4,4 51,5 9,8
11/2018 6,3 11,2 15,3 14,6 14,8 18,6 24,2 17,9 52 72 93 1.002 1.015 1.024 W 5,2 51,5 100,8
10/2018 7,3 15,0 18,3 18,7 14,0 23,2 28,1 20,8 46 71 89 1.000 1.014 1.025 W 4,6 66,0 165,8
09/2018 16,2 20,8 23,9 24,5 24,7 28,6 32,7 16,5 57 75 85 1.012 1.019 1.028 W 4,5 38,6 124,0
08/2018 20,6 23,7 26,3 27,5 27,4 31,6 37,4 16,8 51 66 76 1.012 1.016 1.018 E 5,6 51,5 8,2
07/2018 21,6 22,9 24,7 27,2 28,1 31,5 36,8 15,2 ENE 5,7 48,3 0,8
06/2018 14,9 19,4 23,1 24,1 25,0 28,8 32,6 17,7 NNE 5,1 35,4 71,6
Tots els anys disponibles
2017
Temperatura (°C)
Humitat relativa (%)
Velocitat del vent i ràfega màxima (km/h)
Direcció del vent (°)
Pressió (hPa)
Precipitació (mm)
Nota sobre les dades: s'avisa a l'usuari de la provisionalitat i no oficialitat d'aquestes dades
Logo AVAMET blanc
Web allotjada a Sollutia
Llicència de Creative CommonsLa web d'AVAMET i els seus continguts estan subjectes a una llicència de
Reconeixement - No Comercial - Compartir igual
Properes estacions: Altea - Club Nàutic d'Altea (Soci), Ontinyent - El Pilar (Soci), Ares del Maestrat (Ajuntament Soci), Catadau - L'Altet (Inforatge)     - - - - -      Últimes estacions: Jacarilla - centro (MeteOrihuela), Elx - Maitino/Vallverda/Velarde/Matola/Ferriol (Soci TiempoElche.com), Orihuela - Playa Flamenca (MeteOrihuela), Puçol - Ciutat Jardí (Soci), Alzira - La Casella (Soci) - - -